createdAt,value
2022-11-15T00:02:34.626Z,33.03
2022-11-15T00:05:21.694Z,30.80
2022-11-15T00:08:08.189Z,32.93
2022-11-15T00:11:00.028Z,35.37
2022-11-15T00:13:46.782Z,34.47
2022-11-15T00:16:33.262Z,31.67
2022-11-15T00:19:19.646Z,30.30
2022-11-15T00:22:06.120Z,32.77
2022-11-15T00:24:52.571Z,32.10
2022-11-15T00:27:40.279Z,31.97
2022-11-15T00:30:27.196Z,33.97
2022-11-15T00:33:13.931Z,29.33
2022-11-15T00:36:05.397Z,30.30
2022-11-15T00:38:51.981Z,33.40
2022-11-15T00:41:38.372Z,31.50
2022-11-15T00:44:26.314Z,30.63
2022-11-15T00:47:12.649Z,28.27
2022-11-15T00:49:58.985Z,32.07
2022-11-15T00:52:46.015Z,35.40
2022-11-15T00:55:32.714Z,35.80
2022-11-15T00:58:19.350Z,37.43
2022-11-15T01:01:13.308Z,40.37
2022-11-15T01:04:01.508Z,40.40
2022-11-15T01:06:49.088Z,37.07
2022-11-15T01:09:35.659Z,39.80
2022-11-15T01:12:22.077Z,41.57
2022-11-15T01:15:09.445Z,39.77
2022-11-15T01:17:57.290Z,41.00
2022-11-15T01:20:44.315Z,46.40
2022-11-15T01:23:31.286Z,40.93
2022-11-15T01:26:18.600Z,46.00
2022-11-15T01:29:05.198Z,44.83
2022-11-15T01:31:51.848Z,47.20
2022-11-15T01:34:39.707Z,47.43
2022-11-15T01:37:26.189Z,53.47
2022-11-15T01:40:13.162Z,50.50
2022-11-15T01:42:59.682Z,49.97
2022-11-15T01:45:48.776Z,50.20
2022-11-15T01:48:37.425Z,53.10
2022-11-15T01:51:28.672Z,52.70
2022-11-15T01:54:19.019Z,58.40
2022-11-15T01:57:08.734Z,57.13
2022-11-15T01:59:55.935Z,58.50
2022-11-15T02:02:42.562Z,61.60
2022-11-15T02:05:29.501Z,56.00
2022-11-15T02:08:21.773Z,59.43
2022-11-15T02:11:10.559Z,52.63
2022-11-15T02:13:57.839Z,51.17
2022-11-15T02:16:52.767Z,57.23
2022-11-15T02:20:08.764Z,61.57
2022-11-15T02:23:16.156Z,51.23
2022-11-15T02:26:26.273Z,54.90
2022-11-15T02:29:15.943Z,52.33
2022-11-15T02:32:07.797Z,57.50
2022-11-15T02:35:03.985Z,54.17
2022-11-15T02:37:57.912Z,51.80
2022-11-15T02:40:54.132Z,53.73
2022-11-15T02:43:59.027Z,52.07
2022-11-15T02:47:08.267Z,57.50
2022-11-15T02:50:00.547Z,55.33
2022-11-15T02:52:48.268Z,57.23
2022-11-15T02:55:36.831Z,62.20
2022-11-15T02:58:43.119Z,55.97
2022-11-15T03:01:40.379Z,55.07
2022-11-15T03:04:36.343Z,55.07
2022-11-15T03:07:30.800Z,57.30
2022-11-15T03:10:24.993Z,62.13
2022-11-15T03:13:23.079Z,58.37
2022-11-15T03:16:17.448Z,63.93
2022-11-15T03:19:10.218Z,63.67
2022-11-15T03:22:00.188Z,59.50
2022-11-15T03:24:52.427Z,59.30
2022-11-15T03:27:42.457Z,64.97
2022-11-15T03:30:30.477Z,58.37
2022-11-15T03:33:17.892Z,65.63
2022-11-15T03:36:04.965Z,65.33
2022-11-15T03:38:52.383Z,58.87
2022-11-15T03:41:45.894Z,60.37
2022-11-15T03:44:42.332Z,57.70
2022-11-15T03:47:33.963Z,60.90
2022-11-15T03:50:23.060Z,62.47
2022-11-15T03:53:09.871Z,58.37
2022-11-15T03:55:56.264Z,61.40
2022-11-15T03:58:43.981Z,64.93
2022-11-15T04:01:30.604Z,66.87
2022-11-15T04:04:17.324Z,63.43
2022-11-15T04:07:04.035Z,65.13
2022-11-15T04:10:06.477Z,65.53
2022-11-15T04:12:53.241Z,62.67
2022-11-15T04:15:41.175Z,64.97
2022-11-15T04:18:27.630Z,67.43
2022-11-15T04:21:31.261Z,68.80
2022-11-15T04:24:18.269Z,66.17
2022-11-15T04:27:04.861Z,68.53
2022-11-15T04:29:51.331Z,64.80
2022-11-15T04:32:39.088Z,66.33
2022-11-15T04:35:25.590Z,63.43
2022-11-15T04:38:12.897Z,68.80
2022-11-15T04:40:59.586Z,70.43
2022-11-15T04:43:46.186Z,67.33
2022-11-15T04:46:32.567Z,67.60
2022-11-15T04:49:20.414Z,69.20
2022-11-15T04:52:06.798Z,61.60
2022-11-15T04:54:53.244Z,59.37
2022-11-15T04:57:40.040Z,63.53
2022-11-15T05:00:26.638Z,62.53
2022-11-15T05:03:30.677Z,66.60
2022-11-15T05:06:18.743Z,65.23
2022-11-15T05:09:05.626Z,61.33
2022-11-15T05:11:52.432Z,62.00
2022-11-15T05:14:38.942Z,61.27
2022-11-15T05:17:25.325Z,70.00
2022-11-15T05:20:12.774Z,66.57
2022-11-15T05:23:00.503Z,64.03
2022-11-15T05:25:47.243Z,62.30
2022-11-15T05:28:34.059Z,62.40
2022-11-15T05:31:20.764Z,74.33
2022-11-15T05:34:07.481Z,72.40
2022-11-15T05:36:54.013Z,63.17
2022-11-15T05:39:41.748Z,64.27
2022-11-15T05:42:29.673Z,72.60
2022-11-15T05:45:16.845Z,73.60
2022-11-15T05:48:07.560Z,76.90
2022-11-15T05:50:54.522Z,74.33
2022-11-15T05:53:40.920Z,73.23
2022-11-15T05:56:29.088Z,69.53
2022-11-15T05:59:15.850Z,68.80
2022-11-15T06:02:02.594Z,70.00
2022-11-15T06:04:49.225Z,63.77
2022-11-15T06:07:35.762Z,67.90
2022-11-15T06:10:22.464Z,65.10
2022-11-15T06:13:10.393Z,70.67
2022-11-15T06:16:00.049Z,68.30
2022-11-15T06:18:46.594Z,67.77
2022-11-15T06:21:33.393Z,69.03
2022-11-15T06:24:23.720Z,73.60
2022-11-15T06:27:10.184Z,73.07
2022-11-15T06:29:57.981Z,73.37
2022-11-15T06:32:44.335Z,69.23
2022-11-15T06:35:31.968Z,64.17
2022-11-15T06:38:18.810Z,59.67
2022-11-15T06:41:06.709Z,61.70
2022-11-15T06:43:53.193Z,69.30
2022-11-15T06:46:41.018Z,65.13
2022-11-15T06:49:27.711Z,70.33
2022-11-15T06:52:14.105Z,60.07
2022-11-15T06:55:00.582Z,62.67
2022-11-15T06:57:51.073Z,69.53
2022-11-15T07:00:37.466Z,63.60
2022-11-15T07:03:25.154Z,57.83
2022-11-15T07:06:12.413Z,55.17
2022-11-15T07:08:59.070Z,53.40
2022-11-15T07:11:45.402Z,51.17
2022-11-15T07:14:31.670Z,49.20
2022-11-15T07:17:17.966Z,55.27
2022-11-15T07:20:06.921Z,54.87
2022-11-15T07:23:01.104Z,62.07
2022-11-15T07:25:47.779Z,69.70
2022-11-15T07:28:34.739Z,70.00
2022-11-15T07:31:21.673Z,71.97
2022-11-15T07:34:08.095Z,64.87
2022-11-15T07:36:55.874Z,59.97
2022-11-15T07:39:42.238Z,55.90
2022-11-15T07:42:46.149Z,58.30
2022-11-15T07:45:34.430Z,55.33
2022-11-15T07:48:20.901Z,59.90
2022-11-15T07:51:12.799Z,52.80
2022-11-15T07:54:02.135Z,52.70
2022-11-15T07:56:48.568Z,67.43
2022-11-15T07:59:35.735Z,65.13
2022-11-15T08:02:25.343Z,56.43
2022-11-15T08:05:15.802Z,53.33
2022-11-15T08:08:02.369Z,63.10
2022-11-15T08:10:50.311Z,53.27
2022-11-15T08:13:36.819Z,55.73
2022-11-15T08:16:23.178Z,55.47
2022-11-15T08:19:09.736Z,57.40
2022-11-15T08:21:56.150Z,50.77
2022-11-15T08:24:42.655Z,58.00
2022-11-15T08:27:30.549Z,54.13
2022-11-15T08:30:17.943Z,59.77
2022-11-15T08:33:05.039Z,58.27
2022-11-15T08:35:51.467Z,49.73
2022-11-15T08:38:38.054Z,47.73
2022-11-15T08:41:28.545Z,50.33
2022-11-15T08:44:16.494Z,53.47
2022-11-15T08:47:02.927Z,56.47
2022-11-15T08:49:49.542Z,52.73
2022-11-15T08:52:35.986Z,47.90
2022-11-15T08:55:24.807Z,52.37
2022-11-15T08:58:11.166Z,52.97
2022-11-15T09:00:59.019Z,54.97
2022-11-15T09:03:45.512Z,48.37
2022-11-15T09:06:31.944Z,58.33
2022-11-15T09:09:18.515Z,55.97
2022-11-15T09:12:05.574Z,47.43
2022-11-15T09:14:52.622Z,60.13
2022-11-15T09:17:40.981Z,57.27
2022-11-15T09:20:30.735Z,49.17
2022-11-15T09:23:17.574Z,52.07
2022-11-15T09:26:06.427Z,52.90
2022-11-15T09:28:53.112Z,57.03
2022-11-15T09:31:39.673Z,52.27
2022-11-15T09:34:27.294Z,54.20
2022-11-15T09:37:14.186Z,54.83
2022-11-15T09:40:00.432Z,59.73
2022-11-15T09:43:04.626Z,56.57
2022-11-15T09:45:59.935Z,52.50
2022-11-15T09:48:56.611Z,52.80
2022-11-15T09:51:48.591Z,52.40
2022-11-15T09:57:19.751Z,56.73
2022-11-15T10:00:43.939Z,54.13
2022-11-15T10:03:12.764Z,55.43
2022-11-15T10:05:43.208Z,55.13
2022-11-15T10:08:33.462Z,58.90
2022-11-15T10:11:35.564Z,53.90
2022-11-15T10:13:54.394Z,58.97
2022-11-15T10:16:39.558Z,56.53
2022-11-15T10:19:15.167Z,59.30
2022-11-15T10:21:53.162Z,58.73
2022-11-15T10:24:29.131Z,56.57
2022-11-15T10:26:57.970Z,67.03
2022-11-15T10:29:27.507Z,65.33
2022-11-15T10:31:55.844Z,58.70
2022-11-15T10:34:26.003Z,61.97
2022-11-15T10:36:57.963Z,56.80
2022-11-15T10:39:28.334Z,62.83
2022-11-15T10:41:56.945Z,69.43
2022-11-15T10:44:27.962Z,75.97
2022-11-15T10:47:37.684Z,64.40
2022-11-15T10:50:26.898Z,65.73
2022-11-15T10:52:55.453Z,62.80
2022-11-15T10:55:28.920Z,60.43
2022-11-15T10:58:06.453Z,65.47
2022-11-15T11:00:37.900Z,63.27
2022-11-15T11:03:08.171Z,58.87
2022-11-15T11:05:42.341Z,59.90
2022-11-15T11:08:24.887Z,60.10
2022-11-15T11:11:02.588Z,61.17
2022-11-15T11:13:33.219Z,59.27
2022-11-15T11:16:25.618Z,62.93
2022-11-15T11:19:02.131Z,62.90
2022-11-15T11:21:43.309Z,60.27
2022-11-15T11:24:18.154Z,61.17
2022-11-15T11:26:57.303Z,67.13
2022-11-15T11:29:40.810Z,64.60
2022-11-15T11:32:25.007Z,64.73
2022-11-15T11:35:00.638Z,69.93
2022-11-15T11:37:37.422Z,65.40
2022-11-15T11:40:18.080Z,61.87
2022-11-15T11:43:00.124Z,57.67
2022-11-15T11:46:11.528Z,59.33
2022-11-15T11:48:44.613Z,59.70
2022-11-15T11:51:18.519Z,59.63
2022-11-15T11:53:54.019Z,56.90
2022-11-15T11:56:27.550Z,60.93
2022-11-15T11:59:02.121Z,58.10
2022-11-15T12:01:35.895Z,66.83
2022-11-15T12:04:07.709Z,64.17
2022-11-15T12:06:38.808Z,62.63
2022-11-15T12:09:17.521Z,56.63
2022-11-15T12:11:53.931Z,66.57
2022-11-15T12:14:31.004Z,56.07
2022-11-15T12:17:00.106Z,68.47
2022-11-15T12:19:28.468Z,72.17
2022-11-15T12:22:01.767Z,62.40
2022-11-15T12:24:34.202Z,57.03
2022-11-15T12:27:05.139Z,64.83
2022-11-15T12:29:39.726Z,61.70
2022-11-15T12:32:16.399Z,61.70
2022-11-15T12:34:47.688Z,61.43
2022-11-15T12:37:35.520Z,61.97
2022-11-15T12:40:20.510Z,61.27
2022-11-15T12:43:15.320Z,58.47
2022-11-15T12:45:46.225Z,63.47
2022-11-15T12:48:59.292Z,65.53
2022-11-15T12:52:07.740Z,64.67
2022-11-15T12:54:52.453Z,62.37
2022-11-15T12:57:44.094Z,58.67
2022-11-15T13:00:49.671Z,66.73
2022-11-15T13:03:26.625Z,65.13
2022-11-15T13:06:07.705Z,59.00
2022-11-15T13:08:53.616Z,58.17
2022-11-15T13:11:45.461Z,62.53
2022-11-15T13:14:56.293Z,59.23
2022-11-15T13:17:35.465Z,67.27
2022-11-15T13:20:31.386Z,63.60
2022-11-15T13:23:09.503Z,70.63
2022-11-15T13:26:12.030Z,55.93
2022-11-15T13:28:45.197Z,62.03
2022-11-15T13:31:37.940Z,66.63
2022-11-15T13:34:50.095Z,62.67
2022-11-15T13:37:29.242Z,68.70
2022-11-15T13:40:03.384Z,74.77
2022-11-15T13:42:31.341Z,72.63
2022-11-15T13:45:01.479Z,67.73
2022-11-15T13:47:31.100Z,65.87
2022-11-15T13:50:01.913Z,61.30
2022-11-15T13:52:35.683Z,58.90
2022-11-15T13:55:09.397Z,65.23
2022-11-15T13:57:43.785Z,67.03
2022-11-15T14:00:29.411Z,65.37
2022-11-15T14:02:58.253Z,62.30
2022-11-15T14:05:27.825Z,68.07
2022-11-15T14:07:56.896Z,70.77
2022-11-15T14:10:31.754Z,69.07
2022-11-15T14:13:00.840Z,65.03
2022-11-15T14:15:32.015Z,63.83
2022-11-15T14:18:00.307Z,73.00
2022-11-15T14:20:34.742Z,74.20
2022-11-15T14:23:04.736Z,67.30
2022-11-15T14:25:33.715Z,72.70
2022-11-15T14:28:31.454Z,69.63
2022-11-15T14:31:01.516Z,66.17
2022-11-15T14:33:32.295Z,77.63
2022-11-15T14:36:07.399Z,66.53
2022-11-15T14:38:35.901Z,61.87
2022-11-15T14:41:04.307Z,63.80
2022-11-15T14:43:32.322Z,68.07
2022-11-15T14:46:00.295Z,69.90
2022-11-15T14:48:28.241Z,70.43
2022-11-15T14:50:56.174Z,67.07
2022-11-15T14:53:25.546Z,69.97
2022-11-15T14:55:53.512Z,63.03
2022-11-15T14:58:21.489Z,69.33
2022-11-15T15:00:49.454Z,71.03
2022-11-15T15:03:17.388Z,70.27
2022-11-15T15:05:46.432Z,69.33
2022-11-15T15:08:14.578Z,71.57
2022-11-15T15:10:46.068Z,69.90
2022-11-15T15:13:19.461Z,82.70
2022-11-15T15:15:48.099Z,76.80
2022-11-15T15:18:16.425Z,88.03
2022-11-15T15:20:46.475Z,82.43
2022-11-15T15:23:19.208Z,78.70
2022-11-15T15:25:49.983Z,77.80
2022-11-15T15:28:18.365Z,87.50
2022-11-15T15:30:46.334Z,87.27
2022-11-15T15:33:14.314Z,88.53
2022-11-15T15:35:42.427Z,91.40
2022-11-15T15:38:12.512Z,83.47
2022-11-15T15:40:40.805Z,84.67
2022-11-15T15:43:10.300Z,91.50
2022-11-15T15:45:40.242Z,79.83
2022-11-15T15:48:10.469Z,76.40
2022-11-15T15:50:39.270Z,79.20
2022-11-15T15:53:09.062Z,89.10
2022-11-15T15:55:37.161Z,104.13
2022-11-15T15:58:05.833Z,108.00
2022-11-15T16:00:35.197Z,99.00
2022-11-15T16:03:03.154Z,104.43
2022-11-15T16:05:31.263Z,122.33
2022-11-15T16:07:59.409Z,122.80
2022-11-15T16:10:29.247Z,98.47
2022-11-15T16:12:58.927Z,85.93
2022-11-15T16:15:28.665Z,84.47
2022-11-15T16:17:59.930Z,99.50
2022-11-15T16:20:36.725Z,114.90
2022-11-15T16:23:09.179Z,113.30
2022-11-15T16:25:42.561Z,106.37
2022-11-15T16:28:19.884Z,88.00
2022-11-15T16:30:51.116Z,75.67
2022-11-15T16:33:25.249Z,79.37
2022-11-15T16:35:53.207Z,72.83
2022-11-15T16:38:21.254Z,79.93
2022-11-15T16:40:49.488Z,83.97
2022-11-15T16:43:17.598Z,73.30
2022-11-15T16:45:45.872Z,65.83
2022-11-15T16:48:25.240Z,64.67
2022-11-15T16:50:57.436Z,71.83
2022-11-15T16:53:25.709Z,69.10
2022-11-15T16:55:53.746Z,60.60
2022-11-15T16:58:24.542Z,66.37
2022-11-15T17:00:54.119Z,64.73
2022-11-15T17:03:22.263Z,85.37
2022-11-15T17:05:51.925Z,74.70
2022-11-15T17:08:21.730Z,64.43
2022-11-15T17:10:49.975Z,67.20
2022-11-15T17:13:17.976Z,65.70
2022-11-15T17:15:46.034Z,74.50
2022-11-15T17:18:15.518Z,66.27
2022-11-15T17:20:44.463Z,72.63
2022-11-15T17:23:15.727Z,69.73
2022-11-15T17:25:44.194Z,60.00
2022-11-15T17:28:12.261Z,76.63
2022-11-15T17:30:43.023Z,72.53
2022-11-15T17:33:11.093Z,72.27
2022-11-15T17:35:39.082Z,68.47
2022-11-15T17:38:07.019Z,69.37
2022-11-15T17:40:36.468Z,81.43
2022-11-15T17:43:06.475Z,86.13
2022-11-15T17:45:34.709Z,84.00
2022-11-15T17:48:02.691Z,80.30
2022-11-15T17:50:30.754Z,77.37
2022-11-15T17:53:00.392Z,70.67
2022-11-15T17:55:28.404Z,70.60
2022-11-15T17:57:57.995Z,77.37
2022-11-15T18:00:26.302Z,68.83
2022-11-15T18:02:54.291Z,60.10
2022-11-15T18:05:22.260Z,62.60
2022-11-15T18:07:50.219Z,64.97
2022-11-15T18:10:18.312Z,75.43
2022-11-15T18:12:46.275Z,82.43
2022-11-15T18:15:15.692Z,71.33
2022-11-15T18:17:43.689Z,88.40
2022-11-15T18:20:12.485Z,77.80
2022-11-15T18:22:40.501Z,74.57
2022-11-15T18:25:09.006Z,67.67
2022-11-15T18:27:38.239Z,53.83
2022-11-15T18:30:07.146Z,61.00
2022-11-15T18:32:36.541Z,52.23
2022-11-15T18:35:05.050Z,61.73
2022-11-15T18:37:33.318Z,66.57
2022-11-15T18:40:01.300Z,74.17
2022-11-15T18:42:32.934Z,70.43
2022-11-15T18:45:01.767Z,67.83
2022-11-15T18:47:31.620Z,60.37
2022-11-15T18:50:00.996Z,55.50
2022-11-15T18:52:29.038Z,60.47
2022-11-15T18:54:57.077Z,49.33
2022-11-15T18:57:25.026Z,54.83
2022-11-15T18:59:52.964Z,60.20
2022-11-15T19:02:20.919Z,53.70
2022-11-15T19:04:48.881Z,60.97
2022-11-15T19:07:18.296Z,49.80
2022-11-15T19:09:46.714Z,43.77
2022-11-15T19:12:14.689Z,47.30
2022-11-15T19:14:42.650Z,46.93
2022-11-15T19:17:10.841Z,40.13
2022-11-15T19:19:38.774Z,67.93
2022-11-15T19:22:06.788Z,76.33
2022-11-15T19:24:36.081Z,59.10
2022-11-15T19:27:03.964Z,44.07
2022-11-15T19:30:23.171Z,64.43
2022-11-15T19:32:51.197Z,49.40
2022-11-15T19:35:19.332Z,44.83
2022-11-15T19:37:47.571Z,44.47
2022-11-15T19:40:17.875Z,38.13
2022-11-15T19:42:45.825Z,38.50
2022-11-15T19:45:13.886Z,38.90
2022-11-15T19:47:41.950Z,37.93
2022-11-15T19:50:10.872Z,37.10
2022-11-15T19:52:39.868Z,38.50
2022-11-15T19:55:08.915Z,34.00
2022-11-15T19:57:38.769Z,34.93
2022-11-15T20:00:08.480Z,36.47
2022-11-15T20:02:36.643Z,35.87
2022-11-15T20:05:04.771Z,32.10
2022-11-15T20:07:32.831Z,35.13
2022-11-15T20:10:01.054Z,35.03
2022-11-15T20:12:29.047Z,33.57
2022-11-15T20:14:59.091Z,37.83
2022-11-15T20:17:27.049Z,37.17
2022-11-15T20:19:55.404Z,37.17
2022-11-15T20:22:23.308Z,39.97
2022-11-15T20:24:51.294Z,37.93
2022-11-15T20:27:19.420Z,41.53
2022-11-15T20:29:48.791Z,41.43
2022-11-15T20:32:18.241Z,37.40
2022-11-15T20:34:51.428Z,41.67
2022-11-15T20:37:22.065Z,44.53
2022-11-15T20:39:50.095Z,54.00
2022-11-15T20:42:18.083Z,39.90
2022-11-15T20:44:46.088Z,37.10
2022-11-15T20:47:14.027Z,31.50
2022-11-15T20:49:43.782Z,37.73
2022-11-15T20:52:11.770Z,29.97
2022-11-15T20:54:39.725Z,30.97
2022-11-15T20:57:07.745Z,27.07
2022-11-15T20:59:35.940Z,33.93
2022-11-15T21:02:04.080Z,29.03
2022-11-15T21:04:32.575Z,30.53
2022-11-15T21:07:01.927Z,34.87
2022-11-15T21:09:47.390Z,29.90
2022-11-15T21:12:15.857Z,32.47
2022-11-15T21:14:45.066Z,32.53
2022-11-15T21:17:13.275Z,31.77
2022-11-15T21:19:41.244Z,30.87
2022-11-15T21:22:12.925Z,29.80
2022-11-15T21:24:41.902Z,35.17
2022-11-15T21:27:10.135Z,35.37
2022-11-15T21:29:38.533Z,38.17
2022-11-15T21:32:08.256Z,35.03
2022-11-15T21:34:36.483Z,38.23
2022-11-15T21:37:04.742Z,44.30
2022-11-15T21:39:35.693Z,38.77
2022-11-15T21:42:06.959Z,40.13
2022-11-15T21:44:34.948Z,39.07
2022-11-15T21:47:03.063Z,38.33
2022-11-15T21:49:31.043Z,42.13
2022-11-15T21:51:59.052Z,41.03
2022-11-15T21:54:27.148Z,40.87
2022-11-15T21:56:56.451Z,46.10
2022-11-15T21:59:24.396Z,39.13
2022-11-15T22:02:09.923Z,45.17
2022-11-15T22:04:46.932Z,44.23
2022-11-15T22:07:15.051Z,44.47
2022-11-15T22:09:43.307Z,41.27
2022-11-15T22:12:12.826Z,39.10
2022-11-15T22:14:41.232Z,45.20
2022-11-15T22:17:12.576Z,45.10
2022-11-15T22:19:52.248Z,38.40
2022-11-15T22:22:21.213Z,48.40
2022-11-15T22:24:49.390Z,46.30
2022-11-15T22:27:19.046Z,47.30
2022-11-15T22:29:47.256Z,52.90
2022-11-15T22:32:15.350Z,47.03
2022-11-15T22:34:43.495Z,53.10
2022-11-15T22:37:20.551Z,59.70
2022-11-15T22:39:49.486Z,57.27
2022-11-15T22:42:23.425Z,45.47
2022-11-15T22:44:52.095Z,57.83
2022-11-15T22:47:20.326Z,55.90
2022-11-15T22:49:48.652Z,55.90
2022-11-15T22:52:17.030Z,54.90
2022-11-15T22:54:45.232Z,49.57
2022-11-15T22:57:13.453Z,57.40
2022-11-15T22:59:42.925Z,50.30
2022-11-15T23:02:11.058Z,49.17
2022-11-15T23:04:39.247Z,45.17
2022-11-15T23:07:07.408Z,52.73
2022-11-15T23:09:35.557Z,44.37
2022-11-15T23:12:21.363Z,45.27
2022-11-15T23:14:50.820Z,51.83
2022-11-15T23:17:18.918Z,37.43
2022-11-15T23:19:47.215Z,52.43
2022-11-15T23:22:32.660Z,50.50
2022-11-15T23:25:00.881Z,48.03
2022-11-15T23:27:28.984Z,52.60
2022-11-15T23:30:15.910Z,47.33
2022-11-15T23:33:01.615Z,50.57
2022-11-15T23:35:29.729Z,54.10
2022-11-15T23:37:58.078Z,53.20
2022-11-15T23:40:26.241Z,51.73
2022-11-15T23:42:54.387Z,48.90
2022-11-15T23:45:23.846Z,50.97
2022-11-15T23:47:55.725Z,51.03
2022-11-15T23:50:26.556Z,43.90
2022-11-15T23:52:54.698Z,52.27
2022-11-15T23:55:22.869Z,48.53
2022-11-15T23:57:51.016Z,47.43
